sensor_id;sensor_type;location;lat;lon;timestamp;P1;durP1;ratioP1;P2;durP2;ratioP2
12181;SDS011;6154;51.550;12.138;2024-03-25T00:01:08;0.03;;;0.03;;
12181;SDS011;6154;51.550;12.138;2024-03-25T00:03:34;1.17;;;0.20;;
12181;SDS011;6154;51.550;12.138;2024-03-25T00:06:01;0.45;;;0.22;;
12181;SDS011;6154;51.550;12.138;2024-03-25T00:08:27;0.17;;;0.17;;
12181;SDS011;6154;51.550;12.138;2024-03-25T00:10:55;0.30;;;0.20;;
12181;SDS011;6154;51.550;12.138;2024-03-25T00:13:21;0.10;;;0.10;;
12181;SDS011;6154;51.550;12.138;2024-03-25T00:15:49;0.30;;;0.30;;
12181;SDS011;6154;51.550;12.138;2024-03-25T00:18:16;0.52;;;0.30;;
12181;SDS011;6154;51.550;12.138;2024-03-25T00:20:44;0.30;;;0.10;;
12181;SDS011;6154;51.550;12.138;2024-03-25T00:23:10;0.20;;;0.20;;
12181;SDS011;6154;51.550;12.138;2024-03-25T00:25:37;0.10;;;0.10;;
12181;SDS011;6154;51.550;12.138;2024-03-25T00:28:03;0.10;;;0.10;;
12181;SDS011;6154;51.550;12.138;2024-03-25T00:30:31;0.35;;;0.28;;
12181;SDS011;6154;51.550;12.138;2024-03-25T00:32:57;0.20;;;0.20;;
12181;SDS011;6154;51.550;12.138;2024-03-25T00:35:26;0.62;;;0.30;;
12181;SDS011;6154;51.550;12.138;2024-03-25T00:37:53;0.20;;;0.20;;
12181;SDS011;6154;51.550;12.138;2024-03-25T00:40:20;0.25;;;0.20;;
12181;SDS011;6154;51.550;12.138;2024-03-25T00:42:47;0.30;;;0.10;;
12181;SDS011;6154;51.550;12.138;2024-03-25T00:45:13;0.40;;;0.32;;
12181;SDS011;6154;51.550;12.138;2024-03-25T00:47:41;0.13;;;0.13;;
12181;SDS011;6154;51.550;12.138;2024-03-25T00:50:08;1.05;;;0.40;;
12181;SDS011;6154;51.550;12.138;2024-03-25T00:52:36;0.88;;;0.30;;
12181;SDS011;6154;51.550;12.138;2024-03-25T00:55:03;1.90;;;0.20;;
12181;SDS011;6154;51.550;12.138;2024-03-25T00:57:30;1.55;;;0.57;;
12181;SDS011;6154;51.550;12.138;2024-03-25T00:59:58;0.82;;;0.40;;
12181;SDS011;6154;51.550;12.138;2024-03-25T01:02:31;1.12;;;0.30;;
12181;SDS011;6154;51.550;12.138;2024-03-25T01:04:59;0.20;;;0.20;;
12181;SDS011;6154;51.550;12.138;2024-03-25T01:07:32;0.45;;;0.25;;
12181;SDS011;6154;51.550;12.138;2024-03-25T01:10:08;1.55;;;0.52;;
12181;SDS011;6154;51.550;12.138;2024-03-25T01:12:36;0.50;;;0.17;;
12181;SDS011;6154;51.550;12.138;2024-03-25T01:15:03;0.50;;;0.50;;
12181;SDS011;6154;51.550;12.138;2024-03-25T01:17:39;0.52;;;0.30;;
12181;SDS011;6154;51.550;12.138;2024-03-25T01:20:06;0.30;;;0.30;;
12181;SDS011;6154;51.550;12.138;2024-03-25T01:22:34;0.75;;;0.40;;
12181;SDS011;6154;51.550;12.138;2024-03-25T01:25:00;0.25;;;0.20;;
12181;SDS011;6154;51.550;12.138;2024-03-25T01:27:29;1.45;;;0.60;;
12181;SDS011;6154;51.550;12.138;2024-03-25T01:29:55;0.52;;;0.37;;
12181;SDS011;6154;51.550;12.138;2024-03-25T01:32:22;3.22;;;0.60;;
12181;SDS011;6154;51.550;12.138;2024-03-25T01:34:48;0.28;;;0.28;;
12181;SDS011;6154;51.550;12.138;2024-03-25T01:37:15;0.22;;;0.22;;
12181;SDS011;6154;51.550;12.138;2024-03-25T01:39:41;1.17;;;0.40;;
12181;SDS011;6154;51.550;12.138;2024-03-25T01:42:09;1.40;;;0.70;;
12181;SDS011;6154;51.550;12.138;2024-03-25T01:44:36;0.52;;;0.52;;
12181;SDS011;6154;51.550;12.138;2024-03-25T01:47:04;1.67;;;0.50;;
12181;SDS011;6154;51.550;12.138;2024-03-25T01:49:30;4.15;;;0.50;;
12181;SDS011;6154;51.550;12.138;2024-03-25T01:51:58;1.02;;;0.37;;
12181;SDS011;6154;51.550;12.138;2024-03-25T01:54:24;1.40;;;0.40;;
12181;SDS011;6154;51.550;12.138;2024-03-25T01:56:53;1.75;;;0.45;;
12181;SDS011;6154;51.550;12.138;2024-03-25T01:59:20;0.82;;;0.32;;
12181;SDS011;6154;51.550;12.138;2024-03-25T02:01:49;0.57;;;0.57;;
12181;SDS011;6154;51.550;12.138;2024-03-25T02:04:16;0.45;;;0.43;;
12181;SDS011;6154;51.550;12.138;2024-03-25T02:06:43;0.88;;;0.50;;
12181;SDS011;6154;51.550;12.138;2024-03-25T02:09:10;0.50;;;0.32;;
12181;SDS011;6154;51.550;12.138;2024-03-25T02:11:39;1.05;;;0.43;;
12181;SDS011;6154;51.550;12.138;2024-03-25T02:14:07;3.28;;;0.65;;
12181;SDS011;6154;51.550;12.138;2024-03-25T02:16:35;2.12;;;0.55;;
12181;SDS011;6154;51.550;12.138;2024-03-25T02:19:02;1.00;;;0.43;;
12181;SDS011;6154;51.550;12.138;2024-03-25T02:21:29;1.77;;;0.80;;
12181;SDS011;6154;51.550;12.138;2024-03-25T02:23:56;1.35;;;0.30;;
12181;SDS011;6154;51.550;12.138;2024-03-25T02:26:27;1.12;;;0.70;;
12181;SDS011;6154;51.550;12.138;2024-03-25T02:28:54;0.45;;;0.37;;
12181;SDS011;6154;51.550;12.138;2024-03-25T02:31:21;2.17;;;0.50;;
12181;SDS011;6154;51.550;12.138;2024-03-25T02:33:47;0.55;;;0.47;;
12181;SDS011;6154;51.550;12.138;2024-03-25T02:36:14;1.67;;;0.68;;
12181;SDS011;6154;51.550;12.138;2024-03-25T02:38:41;0.40;;;0.40;;
12181;SDS011;6154;51.550;12.138;2024-03-25T02:41:08;0.32;;;0.25;;
12181;SDS011;6154;51.550;12.138;2024-03-25T02:43:36;0.85;;;0.40;;
12181;SDS011;6154;51.550;12.138;2024-03-25T02:46:03;0.75;;;0.55;;
12181;SDS011;6154;51.550;12.138;2024-03-25T02:48:29;0.93;;;0.50;;
12181;SDS011;6154;51.550;12.138;2024-03-25T02:50:56;0.77;;;0.30;;
12181;SDS011;6154;51.550;12.138;2024-03-25T02:53:22;0.60;;;0.30;;
12181;SDS011;6154;51.550;12.138;2024-03-25T02:55:50;1.60;;;0.47;;
12181;SDS011;6154;51.550;12.138;2024-03-25T02:58:16;1.20;;;0.40;;
12181;SDS011;6154;51.550;12.138;2024-03-25T03:00:44;0.13;;;0.13;;
12181;SDS011;6154;51.550;12.138;2024-03-25T03:03:10;1.58;;;0.60;;
12181;SDS011;6154;51.550;12.138;2024-03-25T03:05:38;2.35;;;0.32;;
12181;SDS011;6154;51.550;12.138;2024-03-25T03:08:04;0.28;;;0.28;;
12181;SDS011;6154;51.550;12.138;2024-03-25T03:10:31;0.82;;;0.40;;
12181;SDS011;6154;51.550;12.138;2024-03-25T03:12:57;0.20;;;0.20;;
12181;SDS011;6154;51.550;12.138;2024-03-25T03:15:24;1.30;;;0.50;;
12181;SDS011;6154;51.550;12.138;2024-03-25T03:17:52;3.22;;;0.40;;
12181;SDS011;6154;51.550;12.138;2024-03-25T03:20:19;0.90;;;0.40;;
12181;SDS011;6154;51.550;12.138;2024-03-25T03:22:46;1.33;;;0.68;;
12181;SDS011;6154;51.550;12.138;2024-03-25T03:25:13;2.53;;;0.22;;
12181;SDS011;6154;51.550;12.138;2024-03-25T03:27:39;0.35;;;0.35;;
12181;SDS011;6154;51.550;12.138;2024-03-25T03:30:06;0.28;;;0.28;;
12181;SDS011;6154;51.550;12.138;2024-03-25T03:32:33;0.28;;;0.28;;
12181;SDS011;6154;51.550;12.138;2024-03-25T03:35:01;2.55;;;0.65;;
12181;SDS011;6154;51.550;12.138;2024-03-25T03:37:27;0.28;;;0.25;;
12181;SDS011;6154;51.550;12.138;2024-03-25T03:39:54;1.30;;;0.40;;
12181;SDS011;6154;51.550;12.138;2024-03-25T03:42:20;0.13;;;0.13;;
12181;SDS011;6154;51.550;12.138;2024-03-25T03:44:47;0.30;;;0.30;;
12181;SDS011;6154;51.550;12.138;2024-03-25T03:47:14;0.40;;;0.40;;
12181;SDS011;6154;51.550;12.138;2024-03-25T03:49:41;2.25;;;0.70;;
12181;SDS011;6154;51.550;12.138;2024-03-25T03:52:08;0.40;;;0.20;;
12181;SDS011;6154;51.550;12.138;2024-03-25T03:54:35;3.20;;;0.43;;
12181;SDS011;6154;51.550;12.138;2024-03-25T03:57:01;1.00;;;0.40;;
12181;SDS011;6154;51.550;12.138;2024-03-25T03:59:29;0.40;;;0.32;;
12181;SDS011;6154;51.550;12.138;2024-03-25T04:01:55;0.32;;;0.30;;
12181;SDS011;6154;51.550;12.138;2024-03-25T04:04:23;0.40;;;0.28;;
12181;SDS011;6154;51.550;12.138;2024-03-25T04:06:49;0.62;;;0.32;;
12181;SDS011;6154;51.550;12.138;2024-03-25T04:09:18;0.77;;;0.35;;
12181;SDS011;6154;51.550;12.138;2024-03-25T04:11:44;1.00;;;0.40;;
12181;SDS011;6154;51.550;12.138;2024-03-25T04:14:11;1.33;;;0.45;;
12181;SDS011;6154;51.550;12.138;2024-03-25T04:16:37;0.30;;;0.20;;
12181;SDS011;6154;51.550;12.138;2024-03-25T04:19:04;0.60;;;0.35;;
12181;SDS011;6154;51.550;12.138;2024-03-25T04:21:30;3.85;;;1.05;;
12181;SDS011;6154;51.550;12.138;2024-03-25T04:23:57;0.30;;;0.28;;
12181;SDS011;6154;51.550;12.138;2024-03-25T04:26:25;0.93;;;0.50;;
12181;SDS011;6154;51.550;12.138;2024-03-25T04:28:51;1.00;;;0.70;;
12181;SDS011;6154;51.550;12.138;2024-03-25T04:31:18;0.57;;;0.20;;
12181;SDS011;6154;51.550;12.138;2024-03-25T04:33:45;2.03;;;0.40;;
12181;SDS011;6154;51.550;12.138;2024-03-25T04:36:11;0.60;;;0.60;;
12181;SDS011;6154;51.550;12.138;2024-03-25T04:38:38;0.30;;;0.30;;
12181;SDS011;6154;51.550;12.138;2024-03-25T04:41:04;1.62;;;0.52;;
12181;SDS011;6154;51.550;12.138;2024-03-25T04:43:32;2.47;;;0.70;;
12181;SDS011;6154;51.550;12.138;2024-03-25T04:46:00;2.05;;;0.60;;
12181;SDS011;6154;51.550;12.138;2024-03-25T04:48:26;0.52;;;0.47;;
12181;SDS011;6154;51.550;12.138;2024-03-25T04:50:52;0.77;;;0.50;;
12181;SDS011;6154;51.550;12.138;2024-03-25T04:53:18;1.52;;;1.12;;
12181;SDS011;6154;51.550;12.138;2024-03-25T04:55:45;0.60;;;0.35;;
12181;SDS011;6154;51.550;12.138;2024-03-25T04:58:11;0.37;;;0.37;;
12181;SDS011;6154;51.550;12.138;2024-03-25T05:00:38;0.35;;;0.35;;
12181;SDS011;6154;51.550;12.138;2024-03-25T05:03:05;0.52;;;0.50;;
12181;SDS011;6154;51.550;12.138;2024-03-25T05:05:31;0.43;;;0.43;;
12181;SDS011;6154;51.550;12.138;2024-03-25T05:07:57;2.30;;;0.57;;
12181;SDS011;6154;51.550;12.138;2024-03-25T05:10:23;0.73;;;0.43;;
12181;SDS011;6154;51.550;12.138;2024-03-25T05:12:49;3.45;;;0.70;;
12181;SDS011;6154;51.550;12.138;2024-03-25T05:15:15;0.22;;;0.20;;
12181;SDS011;6154;51.550;12.138;2024-03-25T05:17:43;2.08;;;0.50;;
12181;SDS011;6154;51.550;12.138;2024-03-25T05:20:10;0.32;;;0.32;;
12181;SDS011;6154;51.550;12.138;2024-03-25T05:22:36;0.40;;;0.40;;
12181;SDS011;6154;51.550;12.138;2024-03-25T05:25:03;0.80;;;0.47;;
12181;SDS011;6154;51.550;12.138;2024-03-25T05:27:29;2.50;;;0.60;;
12181;SDS011;6154;51.550;12.138;2024-03-25T05:29:55;3.78;;;0.55;;
12181;SDS011;6154;51.550;12.138;2024-03-25T05:32:22;1.65;;;1.55;;
12181;SDS011;6154;51.550;12.138;2024-03-25T05:34:49;0.80;;;0.45;;
12181;SDS011;6154;51.550;12.138;2024-03-25T05:37:16;0.65;;;0.65;;
12181;SDS011;6154;51.550;12.138;2024-03-25T05:39:43;2.78;;;0.90;;
12181;SDS011;6154;51.550;12.138;2024-03-25T05:42:09;0.98;;;0.52;;
12181;SDS011;6154;51.550;12.138;2024-03-25T05:44:35;2.00;;;0.70;;
12181;SDS011;6154;51.550;12.138;2024-03-25T05:47:02;0.75;;;0.50;;
12181;SDS011;6154;51.550;12.138;2024-03-25T05:49:28;2.30;;;0.93;;
12181;SDS011;6154;51.550;12.138;2024-03-25T05:51:56;2.97;;;0.80;;
12181;SDS011;6154;51.550;12.138;2024-03-25T05:54:22;2.65;;;0.68;;
12181;SDS011;6154;51.550;12.138;2024-03-25T05:56:48;2.20;;;1.00;;
12181;SDS011;6154;51.550;12.138;2024-03-25T05:59:14;2.00;;;0.90;;
12181;SDS011;6154;51.550;12.138;2024-03-25T06:01:41;0.77;;;0.55;;
12181;SDS011;6154;51.550;12.138;2024-03-25T06:04:07;3.83;;;0.50;;
12181;SDS011;6154;51.550;12.138;2024-03-25T06:06:33;0.55;;;0.47;;
12181;SDS011;6154;51.550;12.138;2024-03-25T06:09:00;1.00;;;0.65;;
12181;SDS011;6154;51.550;12.138;2024-03-25T06:11:27;0.60;;;0.50;;
12181;SDS011;6154;51.550;12.138;2024-03-25T06:13:53;1.25;;;0.60;;
12181;SDS011;6154;51.550;12.138;2024-03-25T06:16:19;1.33;;;0.52;;
12181;SDS011;6154;51.550;12.138;2024-03-25T06:18:45;1.60;;;0.70;;
12181;SDS011;6154;51.550;12.138;2024-03-25T06:21:11;0.82;;;0.45;;
12181;SDS011;6154;51.550;12.138;2024-03-25T06:23:38;3.67;;;1.02;;
12181;SDS011;6154;51.550;12.138;2024-03-25T06:26:05;0.65;;;0.43;;
12181;SDS011;6154;51.550;12.138;2024-03-25T06:28:32;2.87;;;0.70;;
12181;SDS011;6154;51.550;12.138;2024-03-25T06:30:58;2.12;;;0.50;;
12181;SDS011;6154;51.550;12.138;2024-03-25T06:33:42;1.02;;;0.40;;
12181;SDS011;6154;51.550;12.138;2024-03-25T06:36:27;1.08;;;0.57;;
12181;SDS011;6154;51.550;12.138;2024-03-25T06:38:53;0.70;;;0.55;;
12181;SDS011;6154;51.550;12.138;2024-03-25T06:41:21;0.40;;;0.40;;
12181;SDS011;6154;51.550;12.138;2024-03-25T06:43:47;0.90;;;0.40;;
12181;SDS011;6154;51.550;12.138;2024-03-25T06:46:14;0.50;;;0.50;;
12181;SDS011;6154;51.550;12.138;2024-03-25T06:48:40;0.50;;;0.50;;
12181;SDS011;6154;51.550;12.138;2024-03-25T06:51:06;3.10;;;0.60;;
12181;SDS011;6154;51.550;12.138;2024-03-25T06:53:33;0.93;;;0.62;;
12181;SDS011;6154;51.550;12.138;2024-03-25T06:55:59;0.50;;;0.50;;
12181;SDS011;6154;51.550;12.138;2024-03-25T06:58:27;1.00;;;0.70;;
12181;SDS011;6154;51.550;12.138;2024-03-25T07:00:55;1.75;;;0.73;;
12181;SDS011;6154;51.550;12.138;2024-03-25T07:03:23;0.47;;;0.43;;
12181;SDS011;6154;51.550;12.138;2024-03-25T07:05:50;0.60;;;0.60;;
12181;SDS011;6154;51.550;12.138;2024-03-25T07:08:17;1.35;;;0.70;;
12181;SDS011;6154;51.550;12.138;2024-03-25T07:10:44;0.73;;;0.45;;
12181;SDS011;6154;51.550;12.138;2024-03-25T07:13:11;2.55;;;0.47;;
12181;SDS011;6154;51.550;12.138;2024-03-25T07:15:39;0.93;;;0.50;;
12181;SDS011;6154;51.550;12.138;2024-03-25T07:18:05;1.85;;;0.43;;
12181;SDS011;6154;51.550;12.138;2024-03-25T07:20:32;2.25;;;0.40;;
12181;SDS011;6154;51.550;12.138;2024-03-25T07:22:58;1.92;;;0.90;;
12181;SDS011;6154;51.550;12.138;2024-03-25T07:25:24;1.80;;;0.60;;
12181;SDS011;6154;51.550;12.138;2024-03-25T07:27:51;0.93;;;0.50;;
12181;SDS011;6154;51.550;12.138;2024-03-25T07:30:18;3.62;;;0.85;;
12181;SDS011;6154;51.550;12.138;2024-03-25T07:32:46;0.45;;;0.30;;
12181;SDS011;6154;51.550;12.138;2024-03-25T07:35:12;1.02;;;0.60;;
12181;SDS011;6154;51.550;12.138;2024-03-25T07:37:38;3.53;;;0.40;;
12181;SDS011;6154;51.550;12.138;2024-03-25T07:40:06;1.00;;;0.50;;
12181;SDS011;6154;51.550;12.138;2024-03-25T07:42:32;0.30;;;0.30;;
12181;SDS011;6154;51.550;12.138;2024-03-25T07:44:59;0.90;;;0.62;;
12181;SDS011;6154;51.550;12.138;2024-03-25T07:47:25;1.92;;;0.60;;
12181;SDS011;6154;51.550;12.138;2024-03-25T07:49:53;0.52;;;0.50;;
12181;SDS011;6154;51.550;12.138;2024-03-25T07:52:19;3.58;;;0.90;;
12181;SDS011;6154;51.550;12.138;2024-03-25T07:54:45;5.07;;;0.90;;
12181;SDS011;6154;51.550;12.138;2024-03-25T07:57:11;1.48;;;0.73;;
12181;SDS011;6154;51.550;12.138;2024-03-25T07:59:37;2.15;;;0.60;;
12181;SDS011;6154;51.550;12.138;2024-03-25T08:02:04;0.60;;;0.60;;
12181;SDS011;6154;51.550;12.138;2024-03-25T08:04:30;0.85;;;0.77;;
12181;SDS011;6154;51.550;12.138;2024-03-25T08:06:58;0.68;;;0.65;;
12181;SDS011;6154;51.550;12.138;2024-03-25T08:09:24;1.85;;;0.70;;
12181;SDS011;6154;51.550;12.138;2024-03-25T08:11:50;3.08;;;0.73;;
12181;SDS011;6154;51.550;12.138;2024-03-25T08:14:16;2.20;;;0.98;;
12181;SDS011;6154;51.550;12.138;2024-03-25T08:16:43;0.85;;;0.60;;
12181;SDS011;6154;51.550;12.138;2024-03-25T08:19:09;4.55;;;1.00;;
12181;SDS011;6154;51.550;12.138;2024-03-25T08:21:35;2.60;;;0.68;;
12181;SDS011;6154;51.550;12.138;2024-03-25T08:24:03;2.15;;;0.80;;
12181;SDS011;6154;51.550;12.138;2024-03-25T08:26:30;1.15;;;0.60;;
12181;SDS011;6154;51.550;12.138;2024-03-25T08:28:56;2.78;;;0.85;;
12181;SDS011;6154;51.550;12.138;2024-03-25T08:31:22;2.80;;;0.95;;
12181;SDS011;6154;51.550;12.138;2024-03-25T08:33:49;3.22;;;0.73;;
12181;SDS011;6154;51.550;12.138;2024-03-25T08:36:15;0.95;;;0.60;;
12181;SDS011;6154;51.550;12.138;2024-03-25T08:38:41;0.62;;;0.62;;
12181;SDS011;6154;51.550;12.138;2024-03-25T08:41:09;1.98;;;0.70;;
12181;SDS011;6154;51.550;12.138;2024-03-25T08:43:35;4.68;;;0.80;;
12181;SDS011;6154;51.550;12.138;2024-03-25T08:46:02;2.15;;;0.80;;
12181;SDS011;6154;51.550;12.138;2024-03-25T08:48:28;1.30;;;0.80;;
12181;SDS011;6154;51.550;12.138;2024-03-25T08:50:54;1.50;;;0.70;;
12181;SDS011;6154;51.550;12.138;2024-03-25T08:53:21;1.50;;;0.50;;
12181;SDS011;6154;51.550;12.138;2024-03-25T08:55:47;1.85;;;0.73;;
12181;SDS011;6154;51.550;12.138;2024-03-25T08:58:15;2.03;;;0.45;;
12181;SDS011;6154;51.550;12.138;2024-03-25T09:00:42;4.55;;;0.75;;
12181;SDS011;6154;51.550;12.138;2024-03-25T09:03:08;4.35;;;0.90;;
12181;SDS011;6154;51.550;12.138;2024-03-25T09:05:34;4.20;;;1.62;;
12181;SDS011;6154;51.550;12.138;2024-03-25T09:08:01;2.80;;;0.98;;
12181;SDS011;6154;51.550;12.138;2024-03-25T09:10:27;2.37;;;0.80;;
12181;SDS011;6154;51.550;12.138;2024-03-25T09:13:13;4.32;;;1.00;;
12181;SDS011;6154;51.550;12.138;2024-03-25T09:15:40;2.75;;;1.23;;
12181;SDS011;6154;51.550;12.138;2024-03-25T09:18:06;4.35;;;1.00;;
12181;SDS011;6154;51.550;12.138;2024-03-25T09:20:32;4.07;;;0.80;;
12181;SDS011;6154;51.550;12.138;2024-03-25T09:22:59;1.23;;;0.80;;
12181;SDS011;6154;51.550;12.138;2024-03-25T09:25:25;3.72;;;0.93;;
12181;SDS011;6154;51.550;12.138;2024-03-25T09:27:51;4.93;;;1.00;;
12181;SDS011;6154;51.550;12.138;2024-03-25T09:30:17;4.87;;;1.20;;
12181;SDS011;6154;51.550;12.138;2024-03-25T09:32:45;6.28;;;1.12;;
12181;SDS011;6154;51.550;12.138;2024-03-25T09:35:11;2.03;;;0.82;;
12181;SDS011;6154;51.550;12.138;2024-03-25T09:37:38;1.65;;;0.70;;
12181;SDS011;6154;51.550;12.138;2024-03-25T09:40:05;2.22;;;0.73;;
12181;SDS011;6154;51.550;12.138;2024-03-25T09:42:33;2.40;;;0.65;;
12181;SDS011;6154;51.550;12.138;2024-03-25T09:45:04;5.80;;;1.15;;
12181;SDS011;6154;51.550;12.138;2024-03-25T09:47:33;5.35;;;1.23;;
12181;SDS011;6154;51.550;12.138;2024-03-25T09:50:01;3.22;;;1.17;;
12181;SDS011;6154;51.550;12.138;2024-03-25T09:52:31;2.15;;;1.10;;
12181;SDS011;6154;51.550;12.138;2024-03-25T09:54:57;0.82;;;0.68;;
12181;SDS011;6154;51.550;12.138;2024-03-25T09:57:23;2.80;;;0.73;;
12181;SDS011;6154;51.550;12.138;2024-03-25T09:59:50;1.45;;;0.62;;
12181;SDS011;6154;51.550;12.138;2024-03-25T10:02:17;2.75;;;0.50;;
12181;SDS011;6154;51.550;12.138;2024-03-25T10:04:44;4.50;;;0.80;;
12181;SDS011;6154;51.550;12.138;2024-03-25T10:07:14;2.55;;;0.80;;
12181;SDS011;6154;51.550;12.138;2024-03-25T10:09:47;3.62;;;1.10;;
12181;SDS011;6154;51.550;12.138;2024-03-25T10:12:14;1.23;;;0.70;;
12181;SDS011;6154;51.550;12.138;2024-03-25T10:14:40;2.78;;;0.50;;
12181;SDS011;6154;51.550;12.138;2024-03-25T10:17:07;1.98;;;0.70;;
12181;SDS011;6154;51.550;12.138;2024-03-25T10:19:33;0.82;;;0.57;;
12181;SDS011;6154;51.550;12.138;2024-03-25T10:22:03;1.33;;;0.90;;
12181;SDS011;6154;51.550;12.138;2024-03-25T10:24:38;2.47;;;0.60;;
12181;SDS011;6154;51.550;12.138;2024-03-25T10:27:05;3.12;;;0.70;;
12181;SDS011;6154;51.550;12.138;2024-03-25T10:29:35;3.37;;;0.88;;
12181;SDS011;6154;51.550;12.138;2024-03-25T10:32:01;1.83;;;0.68;;
12181;SDS011;6154;51.550;12.138;2024-03-25T10:34:28;2.12;;;0.80;;
12181;SDS011;6154;51.550;12.138;2024-03-25T10:36:56;0.85;;;0.77;;
12181;SDS011;6154;51.550;12.138;2024-03-25T10:39:25;2.30;;;1.05;;
12181;SDS011;6154;51.550;12.138;2024-03-25T10:41:57;2.25;;;0.85;;
12181;SDS011;6154;51.550;12.138;2024-03-25T10:44:25;2.70;;;0.80;;
12181;SDS011;6154;51.550;12.138;2024-03-25T10:46:53;6.78;;;0.88;;
12181;SDS011;6154;51.550;12.138;2024-03-25T10:49:26;6.00;;;0.62;;
12181;SDS011;6154;51.550;12.138;2024-03-25T10:51:59;1.90;;;0.88;;
12181;SDS011;6154;51.550;12.138;2024-03-25T10:54:26;3.17;;;1.05;;
12181;SDS011;6154;51.550;12.138;2024-03-25T10:56:58;4.53;;;1.10;;
12181;SDS011;6154;51.550;12.138;2024-03-25T10:59:25;2.10;;;0.60;;
12181;SDS011;6154;51.550;12.138;2024-03-25T11:01:52;2.67;;;0.73;;
12181;SDS011;6154;51.550;12.138;2024-03-25T11:04:19;0.85;;;0.62;;
12181;SDS011;6154;51.550;12.138;2024-03-25T11:06:46;1.77;;;0.85;;
12181;SDS011;6154;51.550;12.138;2024-03-25T11:09:21;1.55;;;0.70;;
12181;SDS011;6154;51.550;12.138;2024-03-25T11:11:49;0.60;;;0.50;;
12181;SDS011;6154;51.550;12.138;2024-03-25T11:14:17;0.62;;;0.40;;
12181;SDS011;6154;51.550;12.138;2024-03-25T11:16:43;0.32;;;0.32;;
12181;SDS011;6154;51.550;12.138;2024-03-25T11:19:10;0.52;;;0.40;;
12181;SDS011;6154;51.550;12.138;2024-03-25T11:21:37;1.45;;;0.60;;
12181;SDS011;6154;51.550;12.138;2024-03-25T11:24:06;0.90;;;0.75;;
12181;SDS011;6154;51.550;12.138;2024-03-25T11:26:33;1.12;;;0.60;;
12181;SDS011;6154;51.550;12.138;2024-03-25T11:28:59;1.98;;;0.55;;
12181;SDS011;6154;51.550;12.138;2024-03-25T11:31:26;1.33;;;0.43;;
12181;SDS011;6154;51.550;12.138;2024-03-25T11:33:53;2.08;;;0.60;;
12181;SDS011;6154;51.550;12.138;2024-03-25T11:36:20;1.08;;;0.60;;
12181;SDS011;6154;51.550;12.138;2024-03-25T11:38:56;2.67;;;0.60;;
12181;SDS011;6154;51.550;12.138;2024-03-25T11:41:23;1.95;;;0.68;;
12181;SDS011;6154;51.550;12.138;2024-03-25T11:43:49;3.80;;;0.98;;
12181;SDS011;6154;51.550;12.138;2024-03-25T11:46:17;1.40;;;0.60;;
12181;SDS011;6154;51.550;12.138;2024-03-25T11:48:45;2.65;;;1.00;;
12181;SDS011;6154;51.550;12.138;2024-03-25T11:51:12;1.60;;;0.73;;
12181;SDS011;6154;51.550;12.138;2024-03-25T11:53:38;3.20;;;0.65;;
12181;SDS011;6154;51.550;12.138;2024-03-25T11:56:05;2.25;;;0.68;;
12181;SDS011;6154;51.550;12.138;2024-03-25T11:58:31;0.90;;;0.65;;
12181;SDS011;6154;51.550;12.138;2024-03-25T12:00:58;1.02;;;0.88;;
12181;SDS011;6154;51.550;12.138;2024-03-25T12:03:24;2.92;;;0.93;;
12181;SDS011;6154;51.550;12.138;2024-03-25T12:05:53;0.98;;;0.60;;
12181;SDS011;6154;51.550;12.138;2024-03-25T12:08:21;2.00;;;0.70;;
12181;SDS011;6154;51.550;12.138;2024-03-25T12:10:47;2.83;;;0.93;;
12181;SDS011;6154;51.550;12.138;2024-03-25T12:13:32;1.35;;;0.37;;
12181;SDS011;6154;51.550;12.138;2024-03-25T12:15:58;1.83;;;0.30;;
12181;SDS011;6154;51.550;12.138;2024-03-25T12:18:24;5.62;;;0.43;;
12181;SDS011;6154;51.550;12.138;2024-03-25T12:20:51;1.00;;;0.52;;
12181;SDS011;6154;51.550;12.138;2024-03-25T12:23:18;0.37;;;0.20;;
12181;SDS011;6154;51.550;12.138;2024-03-25T12:25:47;0.50;;;0.25;;
12181;SDS011;6154;51.550;12.138;2024-03-25T12:28:14;0.88;;;0.60;;
12181;SDS011;6154;51.550;12.138;2024-03-25T12:30:48;0.20;;;0.20;;
12181;SDS011;6154;51.550;12.138;2024-03-25T12:33:15;1.85;;;0.60;;
12181;SDS011;6154;51.550;12.138;2024-03-25T12:35:42;3.03;;;0.50;;
12181;SDS011;6154;51.550;12.138;2024-03-25T12:38:10;0.30;;;0.30;;
12181;SDS011;6154;51.550;12.138;2024-03-25T12:40:49;2.47;;;0.50;;
12181;SDS011;6154;51.550;12.138;2024-03-25T12:43:15;0.82;;;0.50;;
12181;SDS011;6154;51.550;12.138;2024-03-25T12:45:41;3.10;;;0.40;;
12181;SDS011;6154;51.550;12.138;2024-03-25T12:48:08;1.75;;;0.32;;
12181;SDS011;6154;51.550;12.138;2024-03-25T12:50:34;2.60;;;0.43;;
12181;SDS011;6154;51.550;12.138;2024-03-25T12:53:00;0.60;;;0.40;;
12181;SDS011;6154;51.550;12.138;2024-03-25T12:55:29;2.25;;;0.55;;
12181;SDS011;6154;51.550;12.138;2024-03-25T12:57:55;1.73;;;0.70;;
12181;SDS011;6154;51.550;12.138;2024-03-25T13:00:21;0.95;;;0.40;;
12181;SDS011;6154;51.550;12.138;2024-03-25T13:02:48;0.95;;;0.65;;
12181;SDS011;6154;51.550;12.138;2024-03-25T13:05:14;2.62;;;0.50;;
12181;SDS011;6154;51.550;12.138;2024-03-25T13:07:40;0.85;;;0.43;;
12181;SDS011;6154;51.550;12.138;2024-03-25T13:10:06;4.97;;;0.32;;
12181;SDS011;6154;51.550;12.138;2024-03-25T13:12:34;0.40;;;0.40;;
12181;SDS011;6154;51.550;12.138;2024-03-25T13:15:00;0.25;;;0.10;;
12181;SDS011;6154;51.550;12.138;2024-03-25T13:17:27;2.92;;;0.45;;
12181;SDS011;6154;51.550;12.138;2024-03-25T13:19:53;0.20;;;0.20;;
12181;SDS011;6154;51.550;12.138;2024-03-25T13:22:19;1.23;;;0.40;;
12181;SDS011;6154;51.550;12.138;2024-03-25T13:24:45;1.30;;;0.62;;
12181;SDS011;6154;51.550;12.138;2024-03-25T13:27:11;2.20;;;0.47;;
12181;SDS011;6154;51.550;12.138;2024-03-25T13:29:39;2.72;;;0.85;;
12181;SDS011;6154;51.550;12.138;2024-03-25T13:32:05;3.30;;;0.82;;
12181;SDS011;6154;51.550;12.138;2024-03-25T13:34:31;0.28;;;0.28;;
12181;SDS011;6154;51.550;12.138;2024-03-25T13:36:57;3.80;;;0.77;;
12181;SDS011;6154;51.550;12.138;2024-03-25T13:39:24;1.48;;;0.52;;
12181;SDS011;6154;51.550;12.138;2024-03-25T13:41:50;1.58;;;0.70;;
12181;SDS011;6154;51.550;12.138;2024-03-25T13:44:16;1.17;;;0.50;;
12181;SDS011;6154;51.550;12.138;2024-03-25T13:46:44;0.52;;;0.52;;
12181;SDS011;6154;51.550;12.138;2024-03-25T13:49:10;4.37;;;0.40;;
12181;SDS011;6154;51.550;12.138;2024-03-25T13:51:36;0.75;;;0.60;;
12181;SDS011;6154;51.550;12.138;2024-03-25T13:54:02;1.70;;;0.75;;
12181;SDS011;6154;51.550;12.138;2024-03-25T13:56:29;2.67;;;0.73;;
12181;SDS011;6154;51.550;12.138;2024-03-25T13:58:55;0.65;;;0.65;;
12181;SDS011;6154;51.550;12.138;2024-03-25T14:01:21;1.00;;;0.75;;
12181;SDS011;6154;51.550;12.138;2024-03-25T14:03:49;1.50;;;0.60;;
12181;SDS011;6154;51.550;12.138;2024-03-25T14:06:15;2.72;;;0.77;;
12181;SDS011;6154;51.550;12.138;2024-03-25T14:08:41;3.05;;;0.90;;
12181;SDS011;6154;51.550;12.138;2024-03-25T14:11:07;3.37;;;0.85;;
12181;SDS011;6154;51.550;12.138;2024-03-25T14:13:34;1.42;;;0.60;;
12181;SDS011;6154;51.550;12.138;2024-03-25T14:16:00;1.67;;;0.70;;
12181;SDS011;6154;51.550;12.138;2024-03-25T14:18:26;0.80;;;0.50;;
12181;SDS011;6154;51.550;12.138;2024-03-25T14:20:54;1.15;;;0.62;;
12181;SDS011;6154;51.550;12.138;2024-03-25T14:23:20;1.37;;;0.80;;
12181;SDS011;6154;51.550;12.138;2024-03-25T14:25:46;2.50;;;0.70;;
12181;SDS011;6154;51.550;12.138;2024-03-25T14:28:13;1.27;;;0.77;;
12181;SDS011;6154;51.550;12.138;2024-03-25T14:30:41;2.15;;;0.60;;
12181;SDS011;6154;51.550;12.138;2024-03-25T14:33:09;0.50;;;0.50;;
12181;SDS011;6154;51.550;12.138;2024-03-25T14:35:37;6.75;;;1.58;;
12181;SDS011;6154;51.550;12.138;2024-03-25T14:38:07;2.42;;;1.77;;
12181;SDS011;6154;51.550;12.138;2024-03-25T14:40:37;10.23;;;2.20;;
12181;SDS011;6154;51.550;12.138;2024-03-25T14:43:05;9.45;;;2.60;;
12181;SDS011;6154;51.550;12.138;2024-03-25T14:45:33;4.72;;;1.23;;
12181;SDS011;6154;51.550;12.138;2024-03-25T14:47:59;6.12;;;0.98;;